createdAt,value
2022-11-29T00:01:03.293Z,67.10
2022-11-29T00:03:30.766Z,54.50
2022-11-29T00:06:07.098Z,47.30
2022-11-29T00:08:34.922Z,55.20
2022-11-29T00:11:34.858Z,62.30
2022-11-29T00:14:01.731Z,57.00
2022-11-29T00:16:28.660Z,70.80
2022-11-29T00:18:55.833Z,44.00
2022-11-29T00:21:22.766Z,58.50
2022-11-29T00:23:49.550Z,60.30
2022-11-29T00:26:16.356Z,47.80
2022-11-29T00:28:43.143Z,61.60
2022-11-29T00:31:31.580Z,60.30
2022-11-29T00:34:00.363Z,52.30
2022-11-29T00:36:27.928Z,58.30
2022-11-29T00:38:54.788Z,50.50
2022-11-29T00:41:21.619Z,59.00
2022-11-29T00:43:48.564Z,58.50
2022-11-29T00:46:15.780Z,61.00
2022-11-29T00:48:42.883Z,77.50
2022-11-29T00:51:10.027Z,53.40
2022-11-29T00:53:37.260Z,59.10
2022-11-29T00:56:05.681Z,66.90
2022-11-29T00:58:33.261Z,69.70
2022-11-29T01:01:00.092Z,59.50
2022-11-29T01:03:26.961Z,57.70
2022-11-29T01:06:10.656Z,56.30
2022-11-29T01:08:38.247Z,49.20
2022-11-29T01:11:10.870Z,49.70
2022-11-29T01:13:38.103Z,52.90
2022-11-29T01:16:05.978Z,55.70
2022-11-29T01:18:33.586Z,52.60
2022-11-29T01:21:08.030Z,50.70
2022-11-29T01:23:35.922Z,66.00
2022-11-29T01:26:09.424Z,67.80
2022-11-29T01:28:37.777Z,59.20
2022-11-29T01:31:09.610Z,56.60
2022-11-29T01:33:37.537Z,57.40
2022-11-29T01:36:05.678Z,68.90
2022-11-29T01:38:33.493Z,62.00
2022-11-29T01:41:13.345Z,61.80
2022-11-29T01:44:11.874Z,57.70
2022-11-29T01:46:44.450Z,47.80
2022-11-29T01:49:16.966Z,59.90
2022-11-29T01:52:30.009Z,55.40
2022-11-29T01:55:01.382Z,56.00
2022-11-29T01:57:29.123Z,58.90
2022-11-29T02:00:01.811Z,55.30
2022-11-29T02:02:38.063Z,50.70
2022-11-29T02:05:06.096Z,49.60
2022-11-29T02:07:33.419Z,58.00
2022-11-29T02:10:01.347Z,57.90
2022-11-29T02:12:33.909Z,53.50
2022-11-29T02:15:09.673Z,65.70
2022-11-29T02:18:02.758Z,61.80
2022-11-29T02:21:14.337Z,52.40
2022-11-29T02:23:49.934Z,52.20
2022-11-29T02:26:54.364Z,49.10
2022-11-29T02:29:30.794Z,49.10
2022-11-29T02:32:19.124Z,52.30
2022-11-29T02:34:46.123Z,57.00
2022-11-29T02:37:46.824Z,55.50
2022-11-29T02:40:27.603Z,64.70
2022-11-29T02:43:32.165Z,47.10
2022-11-29T02:46:11.141Z,54.50
2022-11-29T02:48:52.977Z,59.10
2022-11-29T02:51:41.156Z,56.00
2022-11-29T02:54:25.996Z,51.30
2022-11-29T02:57:03.696Z,58.80
2022-11-29T02:59:55.196Z,51.90
2022-11-29T03:02:30.835Z,57.30
2022-11-29T03:05:22.275Z,54.90
2022-11-29T03:08:00.390Z,58.10
2022-11-29T03:10:41.515Z,50.90
2022-11-29T03:13:36.465Z,47.60
2022-11-29T03:16:16.418Z,50.70
2022-11-29T03:18:59.831Z,47.50
2022-11-29T03:21:45.733Z,55.20
2022-11-29T03:24:17.357Z,57.60
2022-11-29T03:26:56.726Z,70.40
2022-11-29T03:29:32.758Z,58.40
2022-11-29T03:32:14.719Z,47.10
2022-11-29T03:35:26.531Z,53.00
2022-11-29T03:38:27.800Z,50.40
2022-11-29T03:40:59.640Z,36.50
2022-11-29T03:43:38.368Z,41.40
2022-11-29T03:46:11.724Z,46.70
2022-11-29T03:49:02.061Z,45.50
2022-11-29T03:51:48.886Z,41.00
2022-11-29T03:54:47.571Z,62.00
2022-11-29T03:57:21.595Z,58.40
2022-11-29T04:02:48.030Z,50.00
2022-11-29T04:05:19.930Z,47.70
2022-11-29T04:08:17.946Z,51.00
2022-11-29T04:11:34.938Z,57.80
2022-11-29T04:14:04.508Z,54.30
2022-11-29T04:16:52.579Z,44.30
2022-11-29T04:19:43.922Z,50.20
2022-11-29T04:22:13.611Z,40.40
2022-11-29T04:24:58.639Z,62.30
2022-11-29T04:28:02.958Z,55.80
2022-11-29T04:30:47.394Z,50.40
2022-11-29T04:33:35.626Z,56.20
2022-11-29T04:36:47.687Z,49.10
2022-11-29T04:39:29.740Z,46.80
2022-11-29T04:42:02.572Z,38.40
2022-11-29T04:44:54.217Z,45.10
2022-11-29T04:47:27.192Z,42.80
2022-11-29T04:50:12.742Z,52.40
2022-11-29T04:53:15.107Z,50.10
2022-11-29T04:55:55.965Z,54.50
2022-11-29T04:58:43.275Z,45.70
2022-11-29T05:01:31.941Z,61.90
2022-11-29T05:04:09.107Z,48.20
2022-11-29T05:07:05.296Z,38.80
2022-11-29T05:09:59.980Z,49.60
2022-11-29T05:15:46.693Z,49.50
2022-11-29T05:18:36.355Z,37.50
2022-11-29T05:21:07.269Z,38.60
2022-11-29T05:24:11.483Z,44.10
2022-11-29T05:26:46.408Z,49.70
2022-11-29T05:29:28.726Z,43.80
2022-11-29T05:32:04.529Z,42.40
2022-11-29T05:35:05.773Z,46.00
2022-11-29T05:38:05.106Z,38.90
2022-11-29T05:41:10.151Z,41.00
2022-11-29T05:44:04.458Z,57.20
2022-11-29T05:47:02.371Z,48.90
2022-11-29T05:49:29.448Z,43.00
2022-11-29T05:52:21.644Z,43.40
2022-11-29T05:55:13.269Z,41.90
2022-11-29T05:58:12.346Z,49.20
2022-11-29T06:00:48.466Z,46.40
2022-11-29T06:03:38.999Z,49.50
2022-11-29T06:06:39.160Z,43.80
2022-11-29T06:09:28.088Z,47.70
2022-11-29T06:12:01.971Z,37.20
2022-11-29T06:14:34.783Z,42.20
2022-11-29T06:17:31.968Z,52.20
2022-11-29T06:20:51.027Z,52.90
2022-11-29T06:23:28.601Z,54.50
2022-11-29T06:26:14.247Z,49.20
2022-11-29T06:28:53.211Z,69.20
2022-11-29T06:31:25.946Z,62.60
2022-11-29T06:34:06.936Z,58.20
2022-11-29T06:36:42.374Z,56.50
2022-11-29T06:39:10.221Z,55.90
2022-11-29T06:41:37.473Z,68.40
2022-11-29T06:44:05.220Z,54.50
2022-11-29T06:46:46.249Z,54.80
2022-11-29T06:49:34.677Z,42.80
2022-11-29T06:52:07.464Z,62.40
2022-11-29T06:55:00.848Z,55.70
2022-11-29T06:57:39.750Z,52.40
2022-11-29T07:00:21.630Z,54.00
2022-11-29T07:03:11.206Z,44.00
2022-11-29T07:05:38.821Z,49.10
2022-11-29T07:08:13.422Z,62.80
2022-11-29T07:10:42.051Z,60.30
2022-11-29T07:13:12.863Z,60.70
2022-11-29T07:15:52.552Z,64.10
2022-11-29T07:18:35.982Z,65.30
2022-11-29T07:21:28.969Z,56.80
2022-11-29T07:24:34.850Z,64.00
2022-11-29T07:27:06.843Z,50.30
2022-11-29T07:29:59.670Z,45.70
2022-11-29T07:33:07.962Z,53.00
2022-11-29T07:35:37.509Z,46.20
2022-11-29T07:38:13.090Z,48.50
2022-11-29T07:40:52.112Z,51.40
2022-11-29T07:43:51.188Z,54.50
2022-11-29T07:46:18.351Z,59.60
2022-11-29T07:48:45.404Z,49.40
2022-11-29T07:51:12.168Z,48.10
2022-11-29T07:53:42.826Z,50.60
2022-11-29T07:56:11.808Z,47.50
2022-11-29T07:58:39.084Z,47.40
2022-11-29T08:01:06.161Z,56.70
2022-11-29T08:03:34.935Z,61.00
2022-11-29T08:06:02.665Z,47.00
2022-11-29T08:08:29.565Z,41.30
2022-11-29T08:10:56.387Z,53.50
2022-11-29T08:13:23.179Z,60.40
2022-11-29T08:15:49.961Z,46.40
2022-11-29T08:18:17.193Z,39.30
2022-11-29T08:20:45.775Z,41.20
2022-11-29T08:23:13.489Z,42.70
2022-11-29T08:25:40.415Z,45.80
2022-11-29T08:28:07.147Z,42.60
2022-11-29T08:30:34.043Z,48.90
2022-11-29T08:33:01.097Z,36.30
2022-11-29T08:35:28.068Z,30.30
2022-11-29T08:37:54.918Z,28.10
2022-11-29T08:40:22.425Z,27.60
2022-11-29T08:42:49.639Z,27.80
2022-11-29T08:45:16.543Z,33.80
2022-11-29T08:47:43.327Z,34.40
2022-11-29T08:50:14.625Z,32.50
2022-11-29T08:53:03.287Z,26.90
2022-11-29T08:55:42.250Z,36.40
2022-11-29T08:58:11.934Z,30.30
2022-11-29T09:00:40.216Z,26.90
2022-11-29T09:03:26.402Z,32.80
2022-11-29T09:05:53.772Z,33.20
2022-11-29T09:08:20.771Z,33.70
2022-11-29T09:10:47.985Z,30.10
2022-11-29T09:13:14.786Z,36.40
2022-11-29T09:15:42.979Z,29.60
2022-11-29T09:18:10.137Z,24.10
2022-11-29T09:20:36.980Z,28.00
2022-11-29T09:23:04.312Z,33.30
2022-11-29T09:25:31.093Z,42.60
2022-11-29T09:28:01.404Z,24.70
2022-11-29T09:30:31.382Z,24.80
2022-11-29T09:33:04.452Z,19.40
2022-11-29T09:35:32.427Z,26.40
2022-11-29T09:37:59.690Z,25.60
2022-11-29T09:40:33.430Z,27.50
2022-11-29T09:43:11.292Z,29.20
2022-11-29T09:45:42.601Z,26.00
2022-11-29T09:48:25.446Z,22.70
2022-11-29T09:51:33.967Z,30.90
2022-11-29T09:54:19.629Z,24.80
2022-11-29T09:56:50.131Z,25.70
2022-11-29T09:59:24.261Z,22.70
2022-11-29T10:02:04.067Z,26.60
2022-11-29T10:04:39.807Z,22.40
2022-11-29T10:07:17.379Z,24.10
2022-11-29T10:09:53.769Z,21.40
2022-11-29T10:12:35.679Z,20.40
2022-11-29T10:15:23.338Z,24.90
2022-11-29T10:18:01.450Z,27.10
2022-11-29T10:20:41.403Z,20.60
2022-11-29T10:23:25.879Z,26.30
2022-11-29T10:25:55.003Z,22.10
2022-11-29T10:28:25.957Z,20.60
2022-11-29T10:30:55.222Z,31.10
2022-11-29T10:33:28.105Z,25.20
2022-11-29T10:36:02.715Z,22.60
2022-11-29T10:38:31.523Z,22.40
2022-11-29T10:41:07.473Z,17.00
2022-11-29T10:43:36.805Z,20.10
2022-11-29T10:46:05.985Z,24.90
2022-11-29T10:48:33.845Z,23.60
2022-11-29T10:51:01.566Z,17.00
2022-11-29T10:53:36.654Z,20.40
2022-11-29T10:56:29.579Z,16.50
2022-11-29T10:59:04.599Z,20.30
2022-11-29T11:01:38.142Z,22.70
2022-11-29T11:04:09.457Z,19.30
2022-11-29T11:06:47.510Z,15.50
2022-11-29T11:09:48.051Z,15.00
2022-11-29T11:12:14.826Z,17.20
2022-11-29T11:14:43.694Z,24.00
2022-11-29T11:17:32.417Z,18.90
2022-11-29T11:20:04.165Z,19.90
2022-11-29T11:22:33.355Z,18.80
2022-11-29T11:25:25.033Z,21.40
2022-11-29T11:27:53.208Z,20.70
2022-11-29T11:30:26.531Z,16.60
2022-11-29T11:33:25.033Z,15.50
2022-11-29T11:36:25.170Z,24.50
2022-11-29T11:39:12.708Z,20.40
2022-11-29T11:42:02.319Z,15.00
2022-11-29T11:44:58.077Z,17.00
2022-11-29T11:47:31.411Z,17.70
2022-11-29T11:50:01.727Z,15.20
2022-11-29T11:52:39.858Z,19.70
2022-11-29T11:55:20.664Z,22.70
2022-11-29T11:58:18.225Z,21.70
2022-11-29T12:01:24.477Z,17.40
2022-11-29T12:04:01.411Z,16.00
2022-11-29T12:06:28.293Z,17.90
2022-11-29T12:09:32.089Z,16.70
2022-11-29T12:12:20.166Z,16.00
2022-11-29T12:15:02.188Z,20.50
2022-11-29T12:17:38.467Z,14.00
2022-11-29T12:20:10.871Z,17.30
2022-11-29T12:22:48.718Z,21.60
2022-11-29T12:25:22.066Z,19.80
2022-11-29T12:27:50.259Z,14.70
2022-11-29T12:30:18.501Z,17.50
2022-11-29T12:33:11.910Z,15.30
2022-11-29T12:36:04.406Z,19.40
2022-11-29T12:38:46.128Z,15.00
2022-11-29T12:41:40.443Z,11.90
2022-11-29T12:44:37.851Z,15.90
2022-11-29T12:47:35.582Z,13.90
2022-11-29T12:50:33.663Z,13.80
2022-11-29T12:53:21.226Z,12.10
2022-11-29T12:55:53.577Z,14.50
2022-11-29T12:58:44.299Z,14.00
2022-11-29T13:01:28.407Z,14.60
2022-11-29T13:04:19.965Z,13.00
2022-11-29T13:06:49.668Z,10.60
2022-11-29T13:09:35.039Z,13.40
2022-11-29T13:12:11.014Z,10.90
2022-11-29T13:14:44.884Z,12.20
2022-11-29T13:19:58.061Z,12.60
2022-11-29T13:22:46.067Z,11.20
2022-11-29T13:25:25.550Z,10.60
2022-11-29T13:28:06.376Z,11.50
2022-11-29T13:30:35.059Z,15.20
2022-11-29T13:33:11.652Z,15.40
2022-11-29T13:35:43.385Z,16.50
2022-11-29T13:38:24.907Z,16.00
2022-11-29T13:41:01.958Z,22.20
2022-11-29T13:43:42.227Z,12.60
2022-11-29T13:46:22.296Z,17.50
2022-11-29T13:48:52.181Z,13.80
2022-11-29T13:51:24.077Z,14.10
2022-11-29T13:53:51.527Z,12.30
2022-11-29T13:56:33.121Z,19.90
2022-11-29T13:59:05.261Z,20.10
2022-11-29T14:01:46.878Z,14.60
2022-11-29T14:04:38.775Z,21.30
2022-11-29T14:07:10.744Z,15.40
2022-11-29T14:09:56.194Z,16.20
2022-11-29T14:12:41.199Z,11.20
2022-11-29T14:15:20.485Z,14.90
2022-11-29T14:17:47.324Z,12.80
2022-11-29T14:20:24.347Z,18.10
2022-11-29T14:23:03.722Z,16.20
2022-11-29T14:26:00.264Z,20.80
2022-11-29T14:28:31.688Z,24.30
2022-11-29T14:31:03.699Z,23.20
2022-11-29T14:33:51.707Z,32.40
2022-11-29T14:36:25.976Z,40.00
2022-11-29T14:39:29.687Z,39.80
2022-11-29T14:42:18.033Z,27.20
2022-11-29T14:44:50.774Z,30.90
2022-11-29T14:47:29.237Z,28.80
2022-11-29T14:49:59.139Z,31.70
2022-11-29T14:52:29.215Z,30.40
2022-11-29T14:55:47.743Z,29.80
2022-11-29T14:58:18.129Z,48.60
2022-11-29T15:00:47.507Z,30.40
2022-11-29T15:03:46.439Z,37.00
2022-11-29T15:06:25.130Z,28.90
2022-11-29T15:09:15.143Z,33.50
2022-11-29T15:11:41.850Z,29.00
2022-11-29T15:14:17.470Z,34.30
2022-11-29T15:16:55.145Z,34.40
2022-11-29T15:19:52.370Z,30.50
2022-11-29T15:22:29.181Z,41.20
2022-11-29T15:25:10.320Z,38.50
2022-11-29T15:27:40.143Z,46.80
2022-11-29T15:30:27.610Z,47.20
2022-11-29T15:32:55.487Z,45.50
2022-11-29T15:35:22.702Z,52.10
2022-11-29T15:37:51.156Z,47.10
2022-11-29T15:40:24.187Z,47.60
2022-11-29T15:43:19.934Z,56.20
2022-11-29T15:45:51.943Z,47.10
2022-11-29T15:48:27.077Z,44.50
2022-11-29T15:51:14.539Z,34.10
2022-11-29T15:54:12.188Z,31.70
2022-11-29T15:56:55.822Z,29.60
2022-11-29T15:59:38.792Z,48.90
2022-11-29T16:02:22.152Z,60.50
2022-11-29T16:04:53.462Z,70.20
2022-11-29T16:07:23.766Z,88.80
2022-11-29T16:09:57.391Z,82.20
2022-11-29T16:12:24.707Z,69.10
2022-11-29T16:14:55.919Z,59.20
2022-11-29T16:17:34.378Z,53.90
2022-11-29T16:20:13.090Z,54.80
2022-11-29T16:22:40.044Z,43.70
2022-11-29T16:25:15.551Z,43.30
2022-11-29T16:27:42.972Z,51.70
2022-11-29T16:30:41.496Z,41.30
2022-11-29T16:33:20.812Z,53.90
2022-11-29T16:35:48.374Z,42.70
2022-11-29T16:38:21.596Z,52.90
2022-11-29T16:41:19.664Z,45.70
2022-11-29T16:43:53.330Z,78.80
2022-11-29T16:46:20.231Z,54.00
2022-11-29T16:48:54.260Z,44.60
2022-11-29T16:51:37.212Z,40.20
2022-11-29T16:54:27.336Z,35.00
2022-11-29T16:56:56.552Z,50.90
2022-11-29T16:59:28.274Z,45.70
2022-11-29T17:01:56.398Z,46.70
2022-11-29T17:04:24.670Z,48.40
2022-11-29T17:06:54.136Z,51.10
2022-11-29T17:09:27.263Z,50.50
2022-11-29T17:11:55.047Z,43.80
2022-11-29T17:14:21.941Z,40.70
2022-11-29T17:16:49.072Z,56.20
2022-11-29T17:19:16.088Z,47.20
2022-11-29T17:21:43.183Z,41.50
2022-11-29T17:24:13.749Z,56.90
2022-11-29T17:26:42.641Z,64.60
2022-11-29T17:29:11.155Z,65.60
2022-11-29T17:31:38.244Z,62.40
2022-11-29T17:34:05.645Z,59.90
2022-11-29T17:36:32.754Z,67.10
2022-11-29T17:39:00.445Z,46.60
2022-11-29T17:41:29.858Z,62.10
2022-11-29T17:43:57.452Z,63.00
2022-11-29T17:46:29.857Z,51.40
2022-11-29T17:48:59.303Z,60.50
2022-11-29T17:51:51.059Z,55.60
2022-11-29T17:54:13.338Z,46.00
2022-11-29T17:56:40.021Z,53.50
2022-11-29T17:59:06.815Z,52.30
2022-11-29T18:01:35.192Z,48.80
2022-11-29T18:04:04.112Z,43.90
2022-11-29T18:06:35.646Z,40.70
2022-11-29T18:09:04.715Z,35.80
2022-11-29T18:11:41.598Z,37.20
2022-11-29T18:14:15.920Z,35.70
2022-11-29T18:16:44.808Z,34.30
2022-11-29T18:19:15.096Z,36.10
2022-11-29T18:21:42.088Z,48.80
2022-11-29T18:24:09.629Z,43.50
2022-11-29T18:26:37.625Z,55.10
2022-11-29T18:29:05.719Z,45.00
2022-11-29T18:31:36.287Z,36.30
2022-11-29T18:34:11.284Z,30.40
2022-11-29T18:36:43.348Z,40.50
2022-11-29T18:39:15.707Z,37.30
2022-11-29T18:41:44.950Z,32.40
2022-11-29T18:44:14.210Z,37.40
2022-11-29T18:46:42.983Z,40.60
2022-11-29T18:49:12.622Z,32.70
2022-11-29T18:51:41.654Z,42.40
2022-11-29T18:54:08.528Z,32.60
2022-11-29T18:56:36.306Z,34.30
2022-11-29T18:59:09.606Z,38.50
2022-11-29T19:01:40.462Z,33.40
2022-11-29T19:04:10.412Z,33.10
2022-11-29T19:06:39.975Z,34.90
2022-11-29T19:09:11.785Z,27.20
2022-11-29T19:11:39.254Z,33.30
2022-11-29T19:14:10.760Z,26.40
2022-11-29T19:16:39.675Z,41.90
2022-11-29T19:19:06.587Z,40.30
2022-11-29T19:21:38.651Z,43.00
2022-11-29T19:24:12.817Z,32.70
2022-11-29T19:29:06.962Z,27.50
2022-11-29T19:31:33.758Z,34.10
2022-11-29T19:34:00.591Z,35.40
2022-11-29T19:36:29.793Z,40.10
2022-11-29T19:38:58.971Z,26.60
2022-11-29T19:41:33.545Z,32.00
2022-11-29T19:44:06.250Z,30.90
2022-11-29T19:46:36.104Z,34.00
2022-11-29T19:49:05.175Z,31.40
2022-11-29T19:51:32.813Z,31.20
2022-11-29T19:54:02.917Z,37.70
2022-11-29T19:56:31.267Z,33.60
2022-11-29T19:59:01.201Z,35.30
2022-11-29T20:01:36.106Z,36.50
2022-11-29T20:04:07.716Z,30.50
2022-11-29T20:06:35.144Z,34.20
2022-11-29T20:09:02.372Z,32.10
2022-11-29T20:11:29.348Z,37.80
2022-11-29T20:13:58.530Z,32.00
2022-11-29T20:16:26.583Z,43.00
2022-11-29T20:18:54.179Z,56.10
2022-11-29T20:21:25.402Z,37.90
2022-11-29T20:23:57.990Z,36.80
2022-11-29T20:26:26.162Z,38.50
2022-11-29T20:28:53.093Z,27.90
2022-11-29T20:31:22.358Z,39.30
2022-11-29T20:33:51.493Z,31.40
2022-11-29T20:36:38.291Z,38.50
2022-11-29T20:39:21.670Z,44.10
2022-11-29T20:42:01.954Z,38.50
2022-11-29T20:44:44.158Z,27.10
2022-11-29T20:47:16.817Z,31.00
2022-11-29T20:49:44.315Z,40.40
2022-11-29T20:52:19.092Z,33.90
2022-11-29T20:54:45.969Z,36.80
2022-11-29T20:57:12.736Z,39.10
2022-11-29T20:59:39.527Z,32.70
2022-11-29T21:02:06.284Z,31.50
2022-11-29T21:04:33.037Z,39.20
2022-11-29T21:06:59.803Z,35.20
2022-11-29T21:09:28.577Z,35.60
2022-11-29T21:11:55.946Z,39.80
2022-11-29T21:14:23.017Z,37.30
2022-11-29T21:16:49.979Z,31.00
2022-11-29T21:19:25.105Z,40.30
2022-11-29T21:22:17.392Z,38.50
2022-11-29T21:24:55.053Z,35.80
2022-11-29T21:27:28.325Z,35.60
2022-11-29T21:29:55.770Z,35.60
2022-11-29T21:32:24.964Z,47.00
2022-11-29T21:34:52.111Z,30.90
2022-11-29T21:37:22.113Z,36.60
2022-11-29T21:39:51.027Z,54.80
2022-11-29T21:42:18.491Z,40.20
2022-11-29T21:44:45.962Z,39.10
2022-11-29T21:47:13.203Z,53.80
2022-11-29T21:49:40.118Z,66.20
2022-11-29T21:52:06.966Z,56.80
2022-11-29T21:54:33.739Z,44.30
2022-11-29T21:57:01.155Z,60.90
2022-11-29T21:59:28.110Z,40.40
2022-11-29T22:01:55.002Z,43.20
2022-11-29T22:04:21.964Z,50.40
2022-11-29T22:06:48.765Z,35.50
2022-11-29T22:09:15.699Z,48.10
2022-11-29T22:11:42.525Z,35.80
2022-11-29T22:14:14.751Z,50.20
2022-11-29T22:16:56.537Z,45.90
2022-11-29T22:19:34.618Z,35.90
2022-11-29T22:22:05.031Z,44.90
2022-11-29T22:24:34.555Z,37.50
2022-11-29T22:27:01.842Z,34.50
2022-11-29T22:29:28.755Z,47.40
2022-11-29T22:31:58.679Z,40.70
2022-11-29T22:34:26.624Z,38.00
2022-11-29T22:36:53.753Z,34.80
2022-11-29T22:39:20.576Z,34.30
2022-11-29T22:41:53.645Z,37.10
2022-11-29T22:44:21.095Z,35.50
2022-11-29T22:46:47.948Z,41.20
2022-11-29T22:49:15.343Z,31.80
2022-11-29T22:51:43.105Z,45.00
2022-11-29T22:54:17.541Z,58.90
2022-11-29T22:56:45.311Z,39.90
2022-11-29T22:59:13.008Z,60.00
2022-11-29T23:01:41.400Z,50.70
2022-11-29T23:04:10.197Z,48.60
2022-11-29T23:06:42.720Z,38.20
2022-11-29T23:09:20.705Z,51.50
2022-11-29T23:11:55.582Z,52.70
2022-11-29T23:14:23.727Z,61.80
2022-11-29T23:16:50.928Z,51.00
2022-11-29T23:19:18.159Z,55.10
2022-11-29T23:21:46.008Z,52.00
2022-11-29T23:24:16.035Z,61.70
2022-11-29T23:26:45.491Z,43.10
2022-11-29T23:29:17.547Z,67.10
2022-11-29T23:31:45.988Z,52.50
2022-11-29T23:34:13.342Z,44.40
2022-11-29T23:36:40.177Z,33.10
2022-11-29T23:39:06.975Z,48.20
2022-11-29T23:41:35.727Z,40.00
2022-11-29T23:44:04.475Z,51.60
2022-11-29T23:46:31.346Z,42.30
2022-11-29T23:48:58.120Z,48.70
2022-11-29T23:51:24.906Z,53.20
2022-11-29T23:53:53.465Z,47.10
2022-11-29T23:56:21.320Z,53.10
2022-11-29T23:58:48.403Z,40.80
